SBBR

Presidente Juscelino Kubistschek International Airport

Brasília, Brazil
TAF SBBR 182000Z 1900/1924 20005KT CAVOK TN20/1909Z TX30/1919Z BECMG 1906/1908 36005KT BECMG 1912/1914 07010KT 7000 SCT020 BECMG 1918/1920 07007KT SCT040 PROB30 1920/1923 TS SCT040 FEW0045CB RMK PDE
Issued Valid From Valid To
Jan-18 @ 20:00 UTC
(6 hours ago)
Jan-19 @ 00:00 UTC
(2 hours ago)
Jan-20 @ 00:00 UTC
(in 22 hours)
Jan-19 @ 00:00 to Jan-19 @ 06:00
TAF SBBR 182000Z 1900/1924 20005KT CAVOK TN20/1909Z TX30/1919Z
Wind Visibility Clouds
200° at 5 knots 10,000+ meters
  • No significant clouds
Becoming Jan-19 @ 06:00 to Jan-19 @ 12:00
BECMG 1906/1908 36005KT
Wind Visibility Clouds
360° at 5 knots 10,000+ meters
  • No significant clouds
Becoming Jan-19 @ 12:00 to Jan-19 @ 18:00
BECMG 1912/1914 07010KT 7000 SCT020
Wind Visibility Clouds
70° at 10 knots 7,001 meters
  • Scattered at 2,000' AGL
Becoming Jan-19 @ 18:00 to Jan-20 @ 00:00
BECMG 1918/1920 07007KT SCT040
Wind Visibility Clouds
70° at 7 knots 7,001 meters
  • Scattered at 4,000' AGL
Probable  (Probability 30%) Jan-19 @ 20:00 to Jan-19 @ 23:00
PROB30 1920/1923 TS SCT040 FEW0045CB RMK PDE
Clouds Conditions
  • Scattered at 4,000' AGL
  • Thunderstorm
TAF SBBR 182000Z 1900/1924 20005KT CAVOK TN20/1909Z TX30/1919Z BECMG 1906/1908 36005KT BECMG 1912/1914 07010KT 7000 SCT020 BECMG 1918/1920 07007KT SCT040 PROB30 1920/1923 TS SCT040 FEW0045CB RMK PDE
Issued Jan-18 @ 20:00 UTC
(6 hours ago)
Valid From Jan-19 @ 00:00 UTC
(2 hours ago)
Valid To Jan-20 @ 00:00 UTC
(in 22 hours)
Jan-19 @ 00:00 - Jan-19 @ 06:00
Wind Visibility
200° at 5 knots 10,000+ meters
Clouds
  • No significant clouds
Becoming Jan-19 @ 06:00 - Jan-19 @ 12:00
Wind Visibility
360° at 5 knots 10,000+ meters
Clouds
  • No significant clouds
Becoming Jan-19 @ 12:00 - Jan-19 @ 18:00
Wind Visibility
70° at 10 knots 7,001 meters
Clouds
  • Scattered at 2,000' AGL
Becoming Jan-19 @ 18:00 - Jan-20 @ 00:00
Wind Visibility
70° at 7 knots 7,001 meters
Clouds
  • Scattered at 4,000' AGL
Probability 30% Probable Jan-19 @ 20:00 - Jan-19 @ 23:00
Clouds
  • Scattered at 4,000' AGL
Conditions
  • Thunderstorm